EAL560 KPHL-KBOS
Flight info
| Callsign | EAL560 |
|---|---|
| Flight time | 0h 54m |
| Altitude | 35000 |
| Route | DITCH LUIGI HNNAH JFK ROBUC3 |
| Aircraft | B737/M-SDE2E3FGHIRWXY/LB1 |
Departure
| Time | 2026-05-05 23:35 |
|---|---|
| Airport | Philadelphia International Airport (KPHL) |
Arrival
| Time | 2026-05-06 00:30 |
|---|---|
| Airport | Boston Logan International Airport (KBOS) |
| Time | Latitude | Longitude | Altitude | Speed | Heading |
|---|---|---|---|---|---|
| 2026-05-05 23:14 | 39.87297 | -75.24722 | 24 ft | 0 kts | 1° |
| 2026-05-05 23:25 | 39.87288 | -75.24723 | 24 ft | 2 kts | 1° |
| 2026-05-05 23:26 | 39.87272 | -75.24724 | 24 ft | 2 kts | 26° |
| 2026-05-05 23:26 | 39.87261 | -75.24739 | 27 ft | 2 kts | 70° |
| 2026-05-05 23:26 | 39.87259 | -75.24746 | 24 ft | 0 kts | 72° |
| 2026-05-05 23:28 | 39.87258 | -75.24744 | 24 ft | 1 kts | 83° |
| 2026-05-05 23:28 | 39.87248 | -75.24723 | 28 ft | 6 kts | 120° |
| 2026-05-05 23:29 | 39.87239 | -75.24640 | 26 ft | 13 kts | 75° |
| 2026-05-05 23:29 | 39.87268 | -75.24495 | 24 ft | 19 kts | 75° |
| 2026-05-05 23:29 | 39.87302 | -75.24328 | 27 ft | 19 kts | 75° |
| 2026-05-05 23:29 | 39.87335 | -75.24161 | 26 ft | 18 kts | 75° |
| 2026-05-05 23:30 | 39.87366 | -75.24004 | 26 ft | 18 kts | 75° |
| 2026-05-05 23:30 | 39.87381 | -75.23910 | 27 ft | 8 kts | 99° |
| 2026-05-05 23:30 | 39.87336 | -75.23875 | 28 ft | 8 kts | 189° |
| 2026-05-05 23:30 | 39.87308 | -75.23934 | 26 ft | 9 kts | 255° |
| 2026-05-05 23:31 | 39.87291 | -75.24020 | 27 ft | 11 kts | 255° |
| 2026-05-05 23:31 | 39.87271 | -75.24118 | 24 ft | 10 kts | 252° |
| 2026-05-05 23:31 | 39.87216 | -75.24143 | 28 ft | 10 kts | 166° |
| 2026-05-05 23:31 | 39.87158 | -75.24103 | 28 ft | 9 kts | 158° |
| 2026-05-05 23:32 | 39.87089 | -75.24079 | 26 ft | 11 kts | 165° |
| 2026-05-05 23:32 | 39.87009 | -75.24052 | 26 ft | 12 kts | 165° |
| 2026-05-05 23:32 | 39.86933 | -75.24026 | 26 ft | 10 kts | 164° |
| 2026-05-05 23:32 | 39.86906 | -75.23957 | 28 ft | 10 kts | 76° |
| 2026-05-05 23:33 | 39.86926 | -75.23858 | 24 ft | 13 kts | 75° |
| 2026-05-05 23:33 | 39.86951 | -75.23734 | 24 ft | 16 kts | 75° |
| 2026-05-05 23:33 | 39.86980 | -75.23586 | 24 ft | 18 kts | 75° |
| 2026-05-05 23:33 | 39.87005 | -75.23463 | 26 ft | 8 kts | 76° |
| 2026-05-05 23:34 | 39.86968 | -75.23416 | 28 ft | 8 kts | 166° |
| 2026-05-05 23:34 | 39.86920 | -75.23401 | 29 ft | 6 kts | 176° |
| 2026-05-05 23:34 | 39.86896 | -75.23437 | 27 ft | 6 kts | 251° |
| 2026-05-05 23:34 | 39.86886 | -75.23487 | 26 ft | 7 kts | 256° |
| 2026-05-05 23:35 | 39.86841 | -75.23716 | 26 ft | 59 kts | 255° |
| 2026-05-05 23:35 | 39.86680 | -75.24522 | 27 ft | 122 kts | 256° |
| 2026-05-05 23:35 | 39.86424 | -75.25813 | 90 ft | 165 kts | 253° |
| 2026-05-05 23:35 | 39.86128 | -75.27264 | 731 ft | 167 kts | 252° |
| 2026-05-05 23:36 | 39.85848 | -75.28773 | 1403 ft | 172 kts | 254° |
| 2026-05-05 23:36 | 39.85594 | -75.30328 | 1984 ft | 184 kts | 246° |
| 2026-05-05 23:36 | 39.84775 | -75.31696 | 2239 ft | 205 kts | 212° |
| 2026-05-05 23:36 | 39.83322 | -75.32221 | 2479 ft | 236 kts | 180° |
| 2026-05-05 23:37 | 39.81653 | -75.31832 | 3140 ft | 248 kts | 169° |
| 2026-05-05 23:37 | 39.79970 | -75.31244 | 3949 ft | 254 kts | 169° |
| 2026-05-05 23:37 | 39.78289 | -75.30456 | 4781 ft | 263 kts | 154° |
| 2026-05-05 23:37 | 39.76949 | -75.28759 | 5629 ft | 279 kts | 126° |
| 2026-05-05 23:38 | 39.76298 | -75.26334 | 6444 ft | 294 kts | 99° |
| 2026-05-05 23:38 | 39.76454 | -75.23673 | 7243 ft | 304 kts | 81° |
| 2026-05-05 23:38 | 39.76928 | -75.20969 | 8123 ft | 310 kts | 79° |
| 2026-05-05 23:38 | 39.77432 | -75.18232 | 9038 ft | 312 kts | 83° |
| 2026-05-05 23:39 | 39.77662 | -75.15414 | 9875 ft | 315 kts | 90° |
| 2026-05-05 23:39 | 39.77747 | -75.12515 | 10521 ft | 330 kts | 92° |
| 2026-05-05 23:39 | 39.77819 | -75.09397 | 10719 ft | 359 kts | 91° |
| 2026-05-05 23:39 | 39.77916 | -75.06057 | 11161 ft | 377 kts | 90° |
| 2026-05-05 23:40 | 39.78039 | -75.02614 | 11878 ft | 384 kts | 89° |
| 2026-05-05 23:40 | 39.78185 | -74.99102 | 12615 ft | 392 kts | 89° |
| 2026-05-05 23:40 | 39.78342 | -74.95543 | 13458 ft | 396 kts | 89° |
| 2026-05-05 23:40 | 39.78504 | -74.91969 | 14403 ft | 397 kts | 88° |
| 2026-05-05 23:41 | 39.78667 | -74.88382 | 15319 ft | 399 kts | 88° |
| 2026-05-05 23:41 | 39.78829 | -74.84766 | 16161 ft | 403 kts | 88° |
| 2026-05-05 23:41 | 39.78991 | -74.81110 | 16737 ft | 406 kts | 88° |
| 2026-05-05 23:41 | 39.79153 | -74.77423 | 17120 ft | 411 kts | 87° |
| 2026-05-05 23:42 | 39.79644 | -74.73747 | 17843 ft | 415 kts | 69° |
| 2026-05-05 23:42 | 39.80999 | -74.70475 | 18804 ft | 409 kts | 50° |
| 2026-05-05 23:42 | 39.82977 | -74.67928 | 19573 ft | 406 kts | 34° |
| 2026-05-05 23:42 | 39.85255 | -74.65712 | 20231 ft | 412 kts | 33° |
| 2026-05-05 23:43 | 39.87585 | -74.63497 | 20852 ft | 417 kts | 33° |
| 2026-05-05 23:43 | 39.89941 | -74.61246 | 21484 ft | 422 kts | 34° |
| 2026-05-05 23:43 | 39.92308 | -74.58953 | 22117 ft | 426 kts | 34° |
| 2026-05-05 23:43 | 39.94688 | -74.56620 | 22724 ft | 430 kts | 35° |
| 2026-05-05 23:44 | 39.97084 | -74.54250 | 23315 ft | 435 kts | 35° |
| 2026-05-05 23:44 | 39.99505 | -74.51850 | 23925 ft | 438 kts | 36° |
| 2026-05-05 23:44 | 40.01939 | -74.49431 | 24471 ft | 443 kts | 36° |
| 2026-05-05 23:44 | 40.04413 | -74.46974 | 24954 ft | 448 kts | 35° |
| 2026-05-05 23:45 | 40.06910 | -74.44493 | 25561 ft | 449 kts | 35° |
| 2026-05-05 23:45 | 40.09369 | -74.42050 | 26195 ft | 449 kts | 35° |
| 2026-05-05 23:45 | 40.11861 | -74.39574 | 26761 ft | 451 kts | 35° |
| 2026-05-05 23:45 | 40.14366 | -74.37085 | 27265 ft | 453 kts | 34° |
| 2026-05-05 23:46 | 40.16886 | -74.34578 | 27748 ft | 455 kts | 34° |
| 2026-05-05 23:46 | 40.19409 | -74.32068 | 28226 ft | 457 kts | 34° |
| 2026-05-05 23:46 | 40.21944 | -74.29540 | 28686 ft | 459 kts | 34° |
| 2026-05-05 23:46 | 40.24485 | -74.27004 | 29136 ft | 460 kts | 34° |
| 2026-05-05 23:47 | 40.27031 | -74.24458 | 29567 ft | 462 kts | 33° |
| 2026-05-05 23:47 | 40.29595 | -74.21892 | 30001 ft | 463 kts | 33° |
| 2026-05-05 23:47 | 40.32158 | -74.19322 | 30411 ft | 464 kts | 33° |
| 2026-05-05 23:47 | 40.34728 | -74.16744 | 30816 ft | 465 kts | 33° |
| 2026-05-05 23:48 | 40.37296 | -74.14165 | 31276 ft | 464 kts | 33° |
| 2026-05-05 23:48 | 40.39856 | -74.11591 | 31778 ft | 462 kts | 34° |
| 2026-05-05 23:48 | 40.42366 | -74.09066 | 32229 ft | 461 kts | 34° |
| 2026-05-05 23:48 | 40.44912 | -74.06507 | 32620 ft | 460 kts | 34° |
| 2026-05-05 23:49 | 40.47364 | -74.03772 | 32974 ft | 464 kts | 41° |
| 2026-05-05 23:49 | 40.49490 | -74.00556 | 33386 ft | 466 kts | 49° |
| 2026-05-05 23:49 | 40.51465 | -73.97198 | 33810 ft | 464 kts | 50° |
| 2026-05-05 23:49 | 40.53417 | -73.93815 | 34154 ft | 464 kts | 50° |
| 2026-05-05 23:50 | 40.55376 | -73.90445 | 34441 ft | 465 kts | 50° |
| 2026-05-05 23:50 | 40.57357 | -73.87081 | 34713 ft | 465 kts | 50° |
| 2026-05-05 23:50 | 40.59354 | -73.83724 | 34910 ft | 468 kts | 50° |
| 2026-05-05 23:50 | 40.61381 | -73.80327 | 34884 ft | 472 kts | 50° |
| 2026-05-05 23:51 | 40.65445 | -73.73752 | 34425 ft | 453 kts | 46° |
| 2026-05-05 23:51 | 40.67551 | -73.70678 | 33530 ft | 453 kts | 45° |
| 2026-05-05 23:51 | 40.69697 | -73.67625 | 32436 ft | 456 kts | 44° |
| 2026-05-05 23:52 | 40.71867 | -73.64535 | 31278 ft | 462 kts | 44° |
| 2026-05-05 23:52 | 40.74036 | -73.61408 | 30353 ft | 460 kts | 45° |
| 2026-05-05 23:52 | 40.76152 | -73.58327 | 29602 ft | 457 kts | 45° |
| 2026-05-05 23:52 | 40.78277 | -73.55214 | 28926 ft | 455 kts | 45° |
| 2026-05-05 23:53 | 40.80385 | -73.52113 | 28309 ft | 452 kts | 45° |
| 2026-05-05 23:53 | 40.82481 | -73.49030 | 27710 ft | 447 kts | 45° |
| 2026-05-05 23:53 | 40.84551 | -73.45982 | 27167 ft | 443 kts | 46° |
| 2026-05-05 23:53 | 40.86608 | -73.42954 | 26993 ft | 442 kts | 46° |
| 2026-05-05 23:54 | 40.88640 | -73.39957 | 26891 ft | 431 kts | 46° |
| 2026-05-05 23:54 | 40.90639 | -73.37004 | 26904 ft | 435 kts | 46° |
| 2026-05-05 23:54 | 40.92659 | -73.34022 | 26904 ft | 444 kts | 46° |
| 2026-05-05 23:54 | 40.94744 | -73.30941 | 26899 ft | 447 kts | 46° |
| 2026-05-05 23:55 | 40.96796 | -73.27900 | 26673 ft | 439 kts | 46° |
| 2026-05-05 23:55 | 40.98825 | -73.24890 | 26080 ft | 437 kts | 46° |
| 2026-05-05 23:55 | 41.00857 | -73.21875 | 25253 ft | 440 kts | 46° |
| 2026-05-05 23:55 | 41.02886 | -73.18860 | 24657 ft | 437 kts | 47° |
| 2026-05-05 23:56 | 41.04897 | -73.15868 | 24165 ft | 431 kts | 47° |
| 2026-05-05 23:56 | 41.06873 | -73.12924 | 23625 ft | 426 kts | 47° |
| 2026-05-05 23:56 | 41.08841 | -73.09990 | 23098 ft | 423 kts | 47° |
| 2026-05-05 23:56 | 41.10805 | -73.07062 | 22971 ft | 426 kts | 47° |
| 2026-05-05 23:57 | 41.12747 | -73.04164 | 22862 ft | 424 kts | 47° |
| 2026-05-05 23:57 | 41.14692 | -73.01257 | 22867 ft | 420 kts | 47° |
| 2026-05-05 23:57 | 41.16636 | -72.98350 | 22871 ft | 422 kts | 47° |
| 2026-05-05 23:57 | 41.18592 | -72.95422 | 22874 ft | 423 kts | 47° |
| 2026-05-05 23:58 | 41.20537 | -72.92501 | 22874 ft | 422 kts | 48° |
| 2026-05-05 23:58 | 41.22212 | -72.89290 | 22812 ft | 424 kts | 61° |
| 2026-05-05 23:58 | 41.23573 | -72.85821 | 22724 ft | 423 kts | 63° |
| 2026-05-05 23:58 | 41.24861 | -72.82310 | 22617 ft | 422 kts | 64° |
| 2026-05-05 23:59 | 41.26135 | -72.78800 | 22516 ft | 421 kts | 64° |
| 2026-05-05 23:59 | 41.27417 | -72.75303 | 22420 ft | 420 kts | 63° |
| 2026-05-05 23:59 | 41.28734 | -72.71827 | 22330 ft | 420 kts | 63° |
| 2026-05-05 23:59 | 41.30047 | -72.68346 | 22210 ft | 420 kts | 63° |
| 2026-05-06 00:00 | 41.31339 | -72.64918 | 22138 ft | 419 kts | 63° |
| 2026-05-06 00:00 | 41.32649 | -72.61450 | 22035 ft | 419 kts | 63° |
| 2026-05-06 00:00 | 41.33961 | -72.57984 | 21941 ft | 418 kts | 63° |
| 2026-05-06 00:00 | 41.35272 | -72.54526 | 21846 ft | 418 kts | 63° |
| 2026-05-06 00:01 | 41.36582 | -72.51072 | 21757 ft | 417 kts | 63° |
| 2026-05-06 00:01 | 41.37888 | -72.47622 | 21661 ft | 417 kts | 63° |
| 2026-05-06 00:01 | 41.39191 | -72.44177 | 21562 ft | 416 kts | 63° |
| 2026-05-06 00:01 | 41.40487 | -72.40742 | 21467 ft | 415 kts | 63° |
| 2026-05-06 00:02 | 41.41788 | -72.37295 | 21372 ft | 415 kts | 63° |
| 2026-05-06 00:02 | 41.43080 | -72.33866 | 21270 ft | 414 kts | 63° |
| 2026-05-06 00:02 | 41.44371 | -72.30436 | 21158 ft | 413 kts | 63° |
| 2026-05-06 00:02 | 41.45659 | -72.27010 | 21072 ft | 413 kts | 63° |
| 2026-05-06 00:03 | 41.46928 | -72.23630 | 20977 ft | 413 kts | 63° |
| 2026-05-06 00:03 | 41.48215 | -72.20198 | 20843 ft | 413 kts | 63° |
| 2026-05-06 00:03 | 41.49490 | -72.16742 | 20538 ft | 416 kts | 64° |
| 2026-05-06 00:03 | 41.50753 | -72.13282 | 20246 ft | 411 kts | 64° |
| 2026-05-06 00:04 | 41.51583 | -72.11003 | 20050 ft | 409 kts | 64° |
| 2026-05-06 00:04 | 41.53222 | -72.06507 | 19675 ft | 404 kts | 64° |
| 2026-05-06 00:04 | 41.54447 | -72.03148 | 19391 ft | 402 kts | 64° |
| 2026-05-06 00:04 | 41.55273 | -72.00886 | 19209 ft | 400 kts | 64° |
| 2026-05-06 00:05 | 41.57427 | -71.94107 | 18662 ft | 397 kts | 69° |
| 2026-05-06 00:05 | 41.58418 | -71.90680 | 18387 ft | 396 kts | 69° |
| 2026-05-06 00:05 | 41.59422 | -71.87262 | 18116 ft | 395 kts | 68° |
| 2026-05-06 00:06 | 41.60430 | -71.83853 | 17842 ft | 394 kts | 68° |
| 2026-05-06 00:06 | 41.61438 | -71.80445 | 17569 ft | 394 kts | 68° |
| 2026-05-06 00:06 | 41.62444 | -71.77040 | 17288 ft | 393 kts | 68° |
| 2026-05-06 00:06 | 41.63445 | -71.73646 | 17026 ft | 393 kts | 68° |
| 2026-05-06 00:07 | 41.64445 | -71.70252 | 16809 ft | 391 kts | 68° |
| 2026-05-06 00:07 | 41.65442 | -71.66862 | 16537 ft | 391 kts | 68° |
| 2026-05-06 00:07 | 41.66439 | -71.63471 | 16270 ft | 391 kts | 68° |
| 2026-05-06 00:07 | 41.67425 | -71.60110 | 15987 ft | 383 kts | 68° |
| 2026-05-06 00:08 | 41.68374 | -71.56871 | 15717 ft | 374 kts | 68° |
| 2026-05-06 00:08 | 41.69309 | -71.53676 | 15459 ft | 365 kts | 68° |
| 2026-05-06 00:08 | 41.70229 | -71.50528 | 15217 ft | 361 kts | 68° |
| 2026-05-06 00:08 | 41.71141 | -71.47406 | 14973 ft | 359 kts | 68° |
| 2026-05-06 00:09 | 41.72045 | -71.44306 | 14733 ft | 358 kts | 68° |
| 2026-05-06 00:09 | 41.73072 | -71.41221 | 14480 ft | 357 kts | 60° |
| 2026-05-06 00:09 | 41.74302 | -71.38388 | 14246 ft | 356 kts | 57° |
| 2026-05-06 00:09 | 41.75586 | -71.35559 | 14002 ft | 355 kts | 57° |
| 2026-05-06 00:10 | 41.76840 | -71.32720 | 13751 ft | 355 kts | 58° |
| 2026-05-06 00:10 | 41.78078 | -71.29850 | 13499 ft | 355 kts | 58° |
| 2026-05-06 00:10 | 41.79300 | -71.26984 | 13249 ft | 354 kts | 59° |
| 2026-05-06 00:10 | 41.80523 | -71.24110 | 13001 ft | 355 kts | 59° |
| 2026-05-06 00:11 | 41.81744 | -71.21237 | 12747 ft | 355 kts | 58° |
| 2026-05-06 00:11 | 41.82969 | -71.18355 | 12506 ft | 355 kts | 58° |
| 2026-05-06 00:11 | 41.84192 | -71.15477 | 12253 ft | 354 kts | 58° |
| 2026-05-06 00:11 | 41.85407 | -71.12613 | 12001 ft | 348 kts | 58° |
| 2026-05-06 00:12 | 41.86585 | -71.09860 | 11778 ft | 340 kts | 58° |
| 2026-05-06 00:12 | 41.87759 | -71.07144 | 11579 ft | 332 kts | 58° |
| 2026-05-06 00:12 | 41.88916 | -71.04475 | 11345 ft | 329 kts | 58° |
| 2026-05-06 00:12 | 41.90068 | -71.01819 | 11184 ft | 329 kts | 58° |
| 2026-05-06 00:13 | 41.91209 | -70.99183 | 10994 ft | 331 kts | 59° |
| 2026-05-06 00:13 | 41.92383 | -70.96462 | 10797 ft | 333 kts | 59° |
| 2026-05-06 00:13 | 41.93530 | -70.93796 | 10597 ft | 334 kts | 59° |
| 2026-05-06 00:13 | 41.94695 | -70.91081 | 10386 ft | 335 kts | 59° |
| 2026-05-06 00:14 | 41.95853 | -70.88387 | 10174 ft | 332 kts | 59° |
| 2026-05-06 00:14 | 41.96993 | -70.85733 | 9955 ft | 324 kts | 59° |
| 2026-05-06 00:14 | 41.98111 | -70.83132 | 9755 ft | 317 kts | 60° |
| 2026-05-06 00:14 | 41.99206 | -70.80577 | 9567 ft | 314 kts | 60° |
| 2026-05-06 00:15 | 42.00299 | -70.78025 | 9383 ft | 316 kts | 60° |
| 2026-05-06 00:15 | 42.01460 | -70.75501 | 9193 ft | 319 kts | 52° |
| 2026-05-06 00:15 | 42.02912 | -70.73235 | 9013 ft | 321 kts | 45° |
| 2026-05-06 00:15 | 42.04455 | -70.71049 | 8806 ft | 322 kts | 45° |
| 2026-05-06 00:16 | 42.05968 | -70.68879 | 8622 ft | 322 kts | 46° |
| 2026-05-06 00:16 | 42.07481 | -70.66654 | 8423 ft | 322 kts | 47° |
| 2026-05-06 00:16 | 42.08979 | -70.64417 | 8206 ft | 319 kts | 47° |
| 2026-05-06 00:16 | 42.10527 | -70.62332 | 7997 ft | 312 kts | 32° |
| 2026-05-06 00:17 | 42.12446 | -70.61107 | 7738 ft | 302 kts | 9° |
| 2026-05-06 00:17 | 42.14490 | -70.60490 | 7477 ft | 300 kts | 6° |
| 2026-05-06 00:17 | 42.16541 | -70.59948 | 7191 ft | 300 kts | 5° |
| 2026-05-06 00:17 | 42.18599 | -70.59411 | 6911 ft | 301 kts | 6° |
| 2026-05-06 00:18 | 42.20660 | -70.58860 | 6615 ft | 302 kts | 6° |
| 2026-05-06 00:18 | 42.22722 | -70.58297 | 6331 ft | 301 kts | 6° |
| 2026-05-06 00:18 | 42.24766 | -70.57731 | 6046 ft | 300 kts | 6° |
| 2026-05-06 00:18 | 42.26799 | -70.57164 | 5765 ft | 296 kts | 6° |
| 2026-05-06 00:19 | 42.28821 | -70.56597 | 5475 ft | 296 kts | 7° |
| 2026-05-06 00:19 | 42.30830 | -70.56085 | 5182 ft | 291 kts | 358° |
| 2026-05-06 00:19 | 42.32724 | -70.56479 | 5030 ft | 272 kts | 330° |
| 2026-05-06 00:19 | 42.34306 | -70.57759 | 5006 ft | 260 kts | 310° |
| 2026-05-06 00:20 | 42.35623 | -70.59417 | 4998 ft | 259 kts | 308° |
| 2026-05-06 00:20 | 42.36908 | -70.61123 | 4995 ft | 258 kts | 307° |
| 2026-05-06 00:20 | 42.38186 | -70.62827 | 4984 ft | 258 kts | 307° |
| 2026-05-06 00:20 | 42.39469 | -70.64534 | 4984 ft | 258 kts | 307° |
| 2026-05-06 00:21 | 42.40748 | -70.66232 | 4973 ft | 257 kts | 307° |
| 2026-05-06 00:21 | 42.42011 | -70.67903 | 4970 ft | 256 kts | 307° |
| 2026-05-06 00:21 | 42.43291 | -70.69594 | 4968 ft | 256 kts | 307° |
| 2026-05-06 00:21 | 42.44566 | -70.71278 | 4963 ft | 256 kts | 307° |
| 2026-05-06 00:22 | 42.45846 | -70.72969 | 4975 ft | 257 kts | 307° |
| 2026-05-06 00:22 | 42.47131 | -70.74664 | 4972 ft | 257 kts | 307° |
| 2026-05-06 00:22 | 42.48406 | -70.76366 | 4967 ft | 256 kts | 306° |
| 2026-05-06 00:22 | 42.49652 | -70.78043 | 4943 ft | 248 kts | 306° |
| 2026-05-06 00:23 | 42.50852 | -70.79659 | 4874 ft | 239 kts | 306° |
| 2026-05-06 00:23 | 42.52016 | -70.81221 | 4819 ft | 231 kts | 306° |
| 2026-05-06 00:23 | 42.53017 | -70.82803 | 4753 ft | 219 kts | 297° |
| 2026-05-06 00:23 | 42.53902 | -70.84431 | 4716 ft | 210 kts | 296° |
| 2026-05-06 00:24 | 42.54743 | -70.86020 | 4658 ft | 199 kts | 288° |
| 2026-05-06 00:24 | 42.54991 | -70.87695 | 4588 ft | 173 kts | 252° |
| 2026-05-06 00:24 | 42.54518 | -70.89136 | 4574 ft | 166 kts | 237° |
| 2026-05-06 00:24 | 42.53917 | -70.90479 | 4530 ft | 166 kts | 236° |
| 2026-05-06 00:25 | 42.53280 | -70.91786 | 4517 ft | 165 kts | 227° |
| 2026-05-06 00:25 | 42.52280 | -70.92509 | 4503 ft | 170 kts | 202° |
| 2026-05-06 00:25 | 42.51068 | -70.92979 | 3993 ft | 186 kts | 204° |
| 2026-05-06 00:25 | 42.49849 | -70.93522 | 3619 ft | 180 kts | 204° |
| 2026-05-06 00:26 | 42.48719 | -70.94128 | 3099 ft | 170 kts | 208° |
| 2026-05-06 00:26 | 42.47670 | -70.94791 | 2599 ft | 161 kts | 208° |
| 2026-05-06 00:26 | 42.46722 | -70.95424 | 2339 ft | 139 kts | 206° |
| 2026-05-06 00:26 | 42.45860 | -70.95295 | 2063 ft | 140 kts | 154° |
| 2026-05-06 00:27 | 42.45022 | -70.94842 | 1925 ft | 119 kts | 192° |
| 2026-05-06 00:27 | 42.44361 | -70.95490 | 1697 ft | 127 kts | 233° |
| 2026-05-06 00:27 | 42.43990 | -70.96555 | 1618 ft | 125 kts | 244° |
| 2026-05-06 00:27 | 42.43673 | -70.97604 | 1580 ft | 112 kts | 221° |
| 2026-05-06 00:28 | 42.42942 | -70.97911 | 1245 ft | 121 kts | 177° |
| 2026-05-06 00:28 | 42.42119 | -70.97713 | 1123 ft | 116 kts | 172° |
| 2026-05-06 00:28 | 42.41345 | -70.97728 | 1003 ft | 113 kts | 202° |
| 2026-05-06 00:28 | 42.40679 | -70.98342 | 857 ft | 121 kts | 213° |
| 2026-05-06 00:29 | 42.39925 | -70.98856 | 733 ft | 123 kts | 197° |
| 2026-05-06 00:29 | 42.39129 | -70.99228 | 521 ft | 120 kts | 200° |
| 2026-05-06 00:29 | 42.38374 | -70.99614 | 319 ft | 114 kts | 198° |
| 2026-05-06 00:29 | 42.37590 | -70.99988 | 118 ft | 118 kts | 201° |
| 2026-05-06 00:30 | 42.36871 | -71.00331 | 24 ft | 93 kts | 200° |
| 2026-05-06 00:30 | 42.36475 | -71.00523 | 24 ft | 20 kts | 200° |
| 2026-05-06 00:30 | 42.36397 | -71.00614 | 24 ft | 11 kts | 257° |
| 2026-05-06 00:30 | 42.36412 | -71.00702 | 27 ft | 10 kts | 292° |
| 2026-05-06 00:31 | 42.36437 | -71.00784 | 28 ft | 9 kts | 292° |
| 2026-05-06 00:31 | 42.36462 | -71.00864 | 24 ft | 9 kts | 292° |
| 2026-05-06 00:31 | 42.36485 | -71.00943 | 26 ft | 9 kts | 292° |
| 2026-05-06 00:31 | 42.36509 | -71.01023 | 29 ft | 10 kts | 292° |
| 2026-05-06 00:32 | 42.36542 | -71.01130 | 29 ft | 11 kts | 292° |
| 2026-05-06 00:32 | 42.36558 | -71.01182 | 26 ft | 0 kts | 292° |
| 2026-05-06 00:33 | 42.36561 | -71.01192 | 25 ft | 4 kts | 290° |
| 2026-05-06 00:33 | 42.36546 | -71.01230 | 26 ft | 6 kts | 215° |
| 2026-05-06 00:33 | 42.36508 | -71.01251 | 29 ft | 6 kts | 200° |
| 2026-05-06 00:33 | 42.36459 | -71.01275 | 27 ft | 9 kts | 199° |
| 2026-05-06 00:34 | 42.36384 | -71.01310 | 26 ft | 13 kts | 199° |
| 2026-05-06 00:34 | 42.36288 | -71.01356 | 28 ft | 15 kts | 200° |
| 2026-05-06 00:34 | 42.36193 | -71.01404 | 28 ft | 14 kts | 200° |
| 2026-05-06 00:34 | 42.36101 | -71.01448 | 24 ft | 14 kts | 199° |
| 2026-05-06 00:35 | 42.36013 | -71.01490 | 27 ft | 13 kts | 199° |
| 2026-05-06 00:35 | 42.35934 | -71.01528 | 25 ft | 10 kts | 199° |
| 2026-05-06 00:35 | 42.35889 | -71.01583 | 25 ft | 9 kts | 261° |
| 2026-05-06 00:35 | 42.35897 | -71.01668 | 26 ft | 9 kts | 281° |
| 2026-05-06 00:36 | 42.35912 | -71.01762 | 26 ft | 12 kts | 282° |
| 2026-05-06 00:36 | 42.35946 | -71.01879 | 24 ft | 14 kts | 301° |
| 2026-05-06 00:36 | 42.35995 | -71.01993 | 26 ft | 14 kts | 301° |
| 2026-05-06 00:36 | 42.36044 | -71.02102 | 26 ft | 13 kts | 301° |
| 2026-05-06 00:37 | 42.36089 | -71.02206 | 24 ft | 13 kts | 300° |
| 2026-05-06 00:37 | 42.36142 | -71.02276 | 24 ft | 11 kts | 343° |
| 2026-05-06 00:37 | 42.36215 | -71.02261 | 24 ft | 11 kts | 22° |
| 2026-05-06 00:37 | 42.36266 | -71.02203 | 26 ft | 9 kts | 73° |
| 2026-05-06 00:38 | 42.36283 | -71.02125 | 25 ft | 9 kts | 73° |
| 2026-05-06 00:38 | 42.36304 | -71.02077 | 24 ft | 6 kts | 16° |
| 2026-05-06 00:38 | 42.36341 | -71.02075 | 28 ft | 4 kts | 5° |
| 2026-05-06 00:38 | 42.36358 | -71.02073 | 26 ft | 0 kts | 4° |